sensor_id;sensor_type;location;lat;lon;timestamp;pressure;altitude;pressure_sealevel;temperature;humidity
22283;BME280;11310;51.528;21.204;2023-01-29T00:00:13;100885.91;;;-0.12;100.00
22283;BME280;11310;51.528;21.204;2023-01-29T00:02:42;100889.34;;;-0.13;100.00
22283;BME280;11310;51.528;21.204;2023-01-29T00:05:10;100892.81;;;-0.12;100.00
22283;BME280;11310;51.528;21.204;2023-01-29T00:07:54;100898.81;;;-0.13;100.00
22283;BME280;11310;51.528;21.204;2023-01-29T00:10:23;100898.78;;;-0.15;100.00
22283;BME280;11310;51.528;21.204;2023-01-29T00:12:52;100886.75;;;-0.16;100.00
22283;BME280;11310;51.528;21.204;2023-01-29T00:15:22;100887.59;;;-0.15;100.00
22283;BME280;11310;51.528;21.204;2023-01-29T00:17:51;100881.59;;;-0.16;100.00
22283;BME280;11310;51.528;21.204;2023-01-29T00:20:20;100877.28;;;-0.15;100.00
22283;BME280;11310;51.528;21.204;2023-01-29T00:22:48;100873.00;;;-0.15;100.00
22283;BME280;11310;51.528;21.204;2023-01-29T00:25:17;100876.44;;;-0.14;100.00
22283;BME280;11310;51.528;21.204;2023-01-29T00:27:47;100873.84;;;-0.17;100.00
22283;BME280;11310;51.528;21.204;2023-01-29T00:30:16;100879.84;;;-0.17;100.00
22283;BME280;11310;51.528;21.204;2023-01-29T00:32:47;100870.41;;;-0.18;100.00
22283;BME280;11310;51.528;21.204;2023-01-29T00:35:16;100862.66;;;-0.18;100.00
22283;BME280;11310;51.528;21.204;2023-01-29T00:37:45;100859.16;;;-0.23;100.00
22283;BME280;11310;51.528;21.204;2023-01-29T00:40:14;100863.44;;;-0.23;100.00
22283;BME280;11310;51.528;21.204;2023-01-29T00:42:44;100866.88;;;-0.24;100.00
22283;BME280;11310;51.528;21.204;2023-01-29T00:45:31;100852.25;;;-0.27;100.00
22283;BME280;11310;51.528;21.204;2023-01-29T00:48:01;100845.38;;;-0.28;100.00
22283;BME280;11310;51.528;21.204;2023-01-29T00:50:30;100854.00;;;-0.27;100.00
22283;BME280;11310;51.528;21.204;2023-01-29T00:52:59;100847.09;;;-0.27;100.00
22283;BME280;11310;51.528;21.204;2023-01-29T00:55:27;100843.66;;;-0.26;100.00
22283;BME280;11310;51.528;21.204;2023-01-29T00:57:56;100833.34;;;-0.26;100.00
22283;BME280;11310;51.528;21.204;2023-01-29T01:00:24;100821.31;;;-0.30;100.00
22283;BME280;11310;51.528;21.204;2023-01-29T01:02:52;100820.41;;;-0.32;100.00
22283;BME280;11310;51.528;21.204;2023-01-29T01:05:33;100829.00;;;-0.33;100.00
22283;BME280;11310;51.528;21.204;2023-01-29T01:08:03;100834.16;;;-0.33;100.00
22283;BME280;11310;51.528;21.204;2023-01-29T01:11:02;100835.03;;;-0.32;100.00
22283;BME280;11310;51.528;21.204;2023-01-29T01:13:31;100829.84;;;-0.34;100.00
22283;BME280;11310;51.528;21.204;2023-01-29T01:16:00;100832.41;;;-0.37;100.00
22283;BME280;11310;51.528;21.204;2023-01-29T01:18:30;100838.31;;;-0.44;100.00
22283;BME280;11310;51.528;21.204;2023-01-29T01:21:00;100833.16;;;-0.47;100.00
22283;BME280;11310;51.528;21.204;2023-01-29T01:23:29;100822.84;;;-0.47;100.00
22283;BME280;11310;51.528;21.204;2023-01-29T01:25:57;100831.38;;;-0.51;100.00
22283;BME280;11310;51.528;21.204;2023-01-29T01:28:26;100842.53;;;-0.53;100.00
22283;BME280;11310;51.528;21.204;2023-01-29T01:30:55;100834.78;;;-0.55;100.00
22283;BME280;11310;51.528;21.204;2023-01-29T01:33:23;100845.06;;;-0.56;100.00
22283;BME280;11310;51.528;21.204;2023-01-29T01:35:51;100838.19;;;-0.56;100.00
22283;BME280;11310;51.528;21.204;2023-01-29T01:38:22;100833.00;;;-0.59;100.00
22283;BME280;11310;51.528;21.204;2023-01-29T01:40:50;100834.72;;;-0.61;100.00
22283;BME280;11310;51.528;21.204;2023-01-29T01:43:19;100840.66;;;-0.65;100.00
22283;BME280;11310;51.528;21.204;2023-01-29T01:45:47;100831.16;;;-0.69;100.00
22283;BME280;11310;51.528;21.204;2023-01-29T01:48:19;100826.88;;;-0.70;100.00
22283;BME280;11310;51.528;21.204;2023-01-29T01:50:51;100836.28;;;-0.72;100.00
22283;BME280;11310;51.528;21.204;2023-01-29T01:53:22;100839.72;;;-0.73;100.00
22283;BME280;11310;51.528;21.204;2023-01-29T01:55:54;100825.94;;;-0.76;100.00
22283;BME280;11310;51.528;21.204;2023-01-29T01:58:28;100820.75;;;-0.78;100.00
22283;BME280;11310;51.528;21.204;2023-01-29T02:00:57;100819.03;;;-0.79;100.00
22283;BME280;11310;51.528;21.204;2023-01-29T02:03:27;100819.00;;;-0.80;100.00
22283;BME280;11310;51.528;21.204;2023-01-29T02:06:14;100818.13;;;-0.81;100.00
22283;BME280;11310;51.528;21.204;2023-01-29T02:09:05;100825.03;;;-0.80;100.00
22283;BME280;11310;51.528;21.204;2023-01-29T02:11:53;100827.63;;;-0.80;100.00
22283;BME280;11310;51.528;21.204;2023-01-29T02:14:23;100831.03;;;-0.79;100.00
22283;BME280;11310;51.528;21.204;2023-01-29T02:16:52;100825.91;;;-0.78;100.00
22283;BME280;11310;51.528;21.204;2023-01-29T02:19:27;100837.88;;;-0.83;100.00
22283;BME280;11310;51.528;21.204;2023-01-29T02:22:09;100829.28;;;-0.85;100.00
22283;BME280;11310;51.528;21.204;2023-01-29T02:24:58;100836.97;;;-0.86;100.00
22283;BME280;11310;51.528;21.204;2023-01-29T02:30:38;100835.22;;;-0.89;100.00
22283;BME280;11310;51.528;21.204;2023-01-29T02:33:13;100827.50;;;-0.89;100.00
22283;BME280;11310;51.528;21.204;2023-01-29T02:35:55;100832.66;;;-0.89;100.00
22283;BME280;11310;51.528;21.204;2023-01-29T02:38:31;100830.91;;;-0.90;100.00
22283;BME280;11310;51.528;21.204;2023-01-29T02:41:05;100831.75;;;-0.91;100.00
22283;BME280;11310;51.528;21.204;2023-01-29T02:43:43;100842.91;;;-0.92;100.00
22283;BME280;11310;51.528;21.204;2023-01-29T02:46:20;100839.44;;;-0.92;100.00
22283;BME280;11310;51.528;21.204;2023-01-29T02:48:56;100842.88;;;-0.93;100.00
22283;BME280;11310;51.528;21.204;2023-01-29T02:51:33;100838.53;;;-0.97;100.00
22283;BME280;11310;51.528;21.204;2023-01-29T02:54:06;100839.41;;;-0.97;100.00
22283;BME280;11310;51.528;21.204;2023-01-29T02:56:40;100837.69;;;-0.98;100.00
22283;BME280;11310;51.528;21.204;2023-01-29T02:59:13;100830.78;;;-0.99;100.00
22283;BME280;11310;51.528;21.204;2023-01-29T03:01:47;100829.06;;;-1.00;100.00
22283;BME280;11310;51.528;21.204;2023-01-29T03:04:20;100833.34;;;-0.99;100.00
22283;BME280;11310;51.528;21.204;2023-01-29T03:06:53;100829.97;;;-0.98;100.00
22283;BME280;11310;51.528;21.204;2023-01-29T03:09:30;100818.00;;;-0.93;100.00
22283;BME280;11310;51.528;21.204;2023-01-29T03:12:09;100812.00;;;-0.92;100.00
22283;BME280;11310;51.528;21.204;2023-01-29T03:14:56;100812.88;;;-0.90;100.00
22283;BME280;11310;51.528;21.204;2023-01-29T03:17:47;100816.31;;;-0.89;100.00
22283;BME280;11310;51.528;21.204;2023-01-29T03:20:22;100820.59;;;-0.90;100.00
22283;BME280;11310;51.528;21.204;2023-01-29T03:22:57;100812.03;;;-0.90;100.00
22283;BME280;11310;51.528;21.204;2023-01-29T03:25:29;100812.91;;;-0.88;100.00
22283;BME280;11310;51.528;21.204;2023-01-29T03:28:17;100812.91;;;-0.88;100.00
22283;BME280;11310;51.528;21.204;2023-01-29T03:31:06;100806.91;;;-0.86;100.00
22283;BME280;11310;51.528;21.204;2023-01-29T03:34:00;100806.06;;;-0.86;100.00
22283;BME280;11310;51.528;21.204;2023-01-29T03:36:36;100803.53;;;-0.85;100.00
22283;BME280;11310;51.528;21.204;2023-01-29T03:39:13;100796.63;;;-0.86;100.00
22283;BME280;11310;51.528;21.204;2023-01-29T03:41:47;100794.06;;;-0.84;100.00
22283;BME280;11310;51.528;21.204;2023-01-29T03:44:18;100794.94;;;-0.84;100.00
22283;BME280;11310;51.528;21.204;2023-01-29T03:46:55;100788.06;;;-0.85;100.00
22283;BME280;11310;51.528;21.204;2023-01-29T03:49:31;100795.78;;;-0.83;100.00
22283;BME280;11310;51.528;21.204;2023-01-29T03:52:13;100790.63;;;-0.83;100.00
22283;BME280;11310;51.528;21.204;2023-01-29T03:54:50;100781.22;;;-0.83;100.00
22283;BME280;11310;51.528;21.204;2023-01-29T03:57:28;100782.94;;;-0.82;100.00
22283;BME280;11310;51.528;21.204;2023-01-29T04:00:05;100782.94;;;-0.82;100.00
22283;BME280;11310;51.528;21.204;2023-01-29T04:03:04;100781.25;;;-0.80;100.00
22283;BME280;11310;51.528;21.204;2023-01-29T04:05:39;100784.69;;;-0.78;100.00
22283;BME280;11310;51.528;21.204;2023-01-29T04:08:22;100788.97;;;-0.78;100.00
22283;BME280;11310;51.528;21.204;2023-01-29T04:10:55;100786.41;;;-0.80;100.00
22283;BME280;11310;51.528;21.204;2023-01-29T04:13:29;100781.25;;;-0.80;100.00
22283;BME280;11310;51.528;21.204;2023-01-29T04:16:03;100771.78;;;-0.81;100.00
22283;BME280;11310;51.528;21.204;2023-01-29T04:19:04;100783.81;;;-0.81;100.00
22283;BME280;11310;51.528;21.204;2023-01-29T04:21:39;100784.66;;;-0.81;100.00
22283;BME280;11310;51.528;21.204;2023-01-29T04:24:11;100777.78;;;-0.82;100.00
22283;BME280;11310;51.528;21.204;2023-01-29T04:26:57;100779.56;;;-0.78;100.00
22283;BME280;11310;51.528;21.204;2023-01-29T04:29:37;100775.25;;;-0.79;100.00
22283;BME280;11310;51.528;21.204;2023-01-29T04:32:16;100782.13;;;-0.78;100.00
22283;BME280;11310;51.528;21.204;2023-01-29T04:34:58;100775.25;;;-0.79;100.00
22283;BME280;11310;51.528;21.204;2023-01-29T04:37:35;100778.69;;;-0.80;100.00
22283;BME280;11310;51.528;21.204;2023-01-29T04:40:14;100772.63;;;-0.82;100.00
22283;BME280;11310;51.528;21.204;2023-01-29T04:42:49;100770.09;;;-0.80;100.00
22283;BME280;11310;51.528;21.204;2023-01-29T04:45:27;100772.63;;;-0.82;100.00
22283;BME280;11310;51.528;21.204;2023-01-29T04:48:07;100774.34;;;-0.81;100.00
22283;BME280;11310;51.528;21.204;2023-01-29T04:50:45;100774.34;;;-0.81;100.00
22283;BME280;11310;51.528;21.204;2023-01-29T04:53:22;100774.34;;;-0.81;100.00
22283;BME280;11310;51.528;21.204;2023-01-29T04:55:58;100774.38;;;-0.79;100.00
22283;BME280;11310;51.528;21.204;2023-01-29T04:58:32;100760.66;;;-0.80;100.00
22283;BME280;11310;51.528;21.204;2023-01-29T05:01:05;100764.09;;;-0.78;100.00
22283;BME280;11310;51.528;21.204;2023-01-29T05:03:36;100764.91;;;-0.82;100.00
22283;BME280;11310;51.528;21.204;2023-01-29T05:06:08;100762.34;;;-0.82;100.00
22283;BME280;11310;51.528;21.204;2023-01-29T05:08:40;100752.88;;;-0.83;100.00
22283;BME280;11310;51.528;21.204;2023-01-29T05:11:09;100761.50;;;-0.82;100.00
22283;BME280;11310;51.528;21.204;2023-01-29T05:13:39;100752.91;;;-0.81;100.00
22283;BME280;11310;51.528;21.204;2023-01-29T05:16:13;100746.91;;;-0.80;100.00
22283;BME280;11310;51.528;21.204;2023-01-29T05:18:44;100744.34;;;-0.79;100.00
22283;BME280;11310;51.528;21.204;2023-01-29T05:21:12;100746.94;;;-0.79;100.00
22283;BME280;11310;51.528;21.204;2023-01-29T05:23:43;100743.47;;;-0.79;100.00
22283;BME280;11310;51.528;21.204;2023-01-29T05:26:19;100744.38;;;-0.77;100.00
22283;BME280;11310;51.528;21.204;2023-01-29T05:29:06;100750.38;;;-0.77;100.00
22283;BME280;11310;51.528;21.204;2023-01-29T05:31:35;100746.94;;;-0.76;100.00
22283;BME280;11310;51.528;21.204;2023-01-29T05:34:03;100747.78;;;-0.80;100.00
22283;BME280;11310;51.528;21.204;2023-01-29T05:36:32;100752.06;;;-0.79;100.00
22283;BME280;11310;51.528;21.204;2023-01-29T05:39:02;100748.66;;;-0.78;100.00
22283;BME280;11310;51.528;21.204;2023-01-29T05:41:31;100746.94;;;-0.76;100.00
22283;BME280;11310;51.528;21.204;2023-01-29T05:43:59;100747.81;;;-0.75;100.00
22283;BME280;11310;51.528;21.204;2023-01-29T05:46:28;100746.94;;;-0.76;100.00
22283;BME280;11310;51.528;21.204;2023-01-29T05:48:56;100748.69;;;-0.75;100.00
22283;BME280;11310;51.528;21.204;2023-01-29T05:51:25;100745.22;;;-0.77;100.00
22283;BME280;11310;51.528;21.204;2023-01-29T05:53:54;100747.78;;;-0.77;100.00
22283;BME280;11310;51.528;21.204;2023-01-29T05:56:24;100734.91;;;-0.77;100.00
22283;BME280;11310;51.528;21.204;2023-01-29T05:58:52;100734.91;;;-0.77;100.00
22283;BME280;11310;51.528;21.204;2023-01-29T06:01:23;100732.38;;;-0.75;100.00
22283;BME280;11310;51.528;21.204;2023-01-29T06:03:53;100725.50;;;-0.76;100.00
22283;BME280;11310;51.528;21.204;2023-01-29T06:06:21;100731.50;;;-0.74;100.00
22283;BME280;11310;51.528;21.204;2023-01-29T06:08:49;100741.00;;;-0.73;100.00
22283;BME280;11310;51.528;21.204;2023-01-29T06:11:18;100726.34;;;-0.74;100.00
22283;BME280;11310;51.528;21.204;2023-01-29T06:13:49;100737.56;;;-0.72;100.00
22283;BME280;11310;51.528;21.204;2023-01-29T06:16:17;100746.97;;;-0.73;100.00
22283;BME280;11310;51.528;21.204;2023-01-29T06:18:46;100738.44;;;-0.69;100.00
22283;BME280;11310;51.528;21.204;2023-01-29T06:21:15;100737.59;;;-0.71;100.00
22283;BME280;11310;51.528;21.204;2023-01-29T06:23:46;100733.25;;;-0.72;100.00
22283;BME280;11310;51.528;21.204;2023-01-29T06:26:15;100740.16;;;-0.69;100.00
22283;BME280;11310;51.528;21.204;2023-01-29T06:28:43;100749.59;;;-0.71;100.00
22283;BME280;11310;51.528;21.204;2023-01-29T06:31:13;100750.44;;;-0.72;100.00
22283;BME280;11310;51.528;21.204;2023-01-29T06:34:02;100750.44;;;-0.72;100.00
22283;BME280;11310;51.528;21.204;2023-01-29T06:36:30;100746.13;;;-0.72;100.00
22283;BME280;11310;51.528;21.204;2023-01-29T06:38:59;100758.22;;;-0.66;100.00
22283;BME280;11310;51.528;21.204;2023-01-29T06:41:27;100755.66;;;-0.65;100.00
22283;BME280;11310;51.528;21.204;2023-01-29T06:43:56;100765.13;;;-0.64;100.00
22283;BME280;11310;51.528;21.204;2023-01-29T06:46:26;100763.44;;;-0.62;100.00
22283;BME280;11310;51.528;21.204;2023-01-29T06:48:57;100755.69;;;-0.60;100.00
22283;BME280;11310;51.528;21.204;2023-01-29T06:51:25;100759.16;;;-0.60;100.00
22283;BME280;11310;51.528;21.204;2023-01-29T06:53:54;100761.75;;;-0.58;100.00
22283;BME280;11310;51.528;21.204;2023-01-29T06:56:22;100766.03;;;-0.59;100.00
22283;BME280;11310;51.528;21.204;2023-01-29T06:58:51;100764.31;;;-0.60;100.00
22283;BME280;11310;51.528;21.204;2023-01-29T07:01:20;100760.84;;;-0.60;100.00
22283;BME280;11310;51.528;21.204;2023-01-29T07:04:03;100773.78;;;-0.57;100.00
22283;BME280;11310;51.528;21.204;2023-01-29T07:06:32;100768.63;;;-0.56;100.00
22283;BME280;11310;51.528;21.204;2023-01-29T07:09:01;100767.84;;;-0.50;100.00
22283;BME280;11310;51.528;21.204;2023-01-29T07:11:30;100764.41;;;-0.51;100.00
22283;BME280;11310;51.528;21.204;2023-01-29T07:13:59;100760.97;;;-0.50;100.00
22283;BME280;11310;51.528;21.204;2023-01-29T07:16:28;100767.03;;;-0.43;100.00
22283;BME280;11310;51.528;21.204;2023-01-29T07:18:56;100764.47;;;-0.42;100.00
22283;BME280;11310;51.528;21.204;2023-01-29T07:21:26;100777.41;;;-0.39;100.00
22283;BME280;11310;51.528;21.204;2023-01-29T07:23:55;100773.13;;;-0.35;100.00
22283;BME280;11310;51.528;21.204;2023-01-29T07:26:24;100771.41;;;-0.35;100.00
22283;BME280;11310;51.528;21.204;2023-01-29T07:28:52;100774.91;;;-0.30;100.00
22283;BME280;11310;51.528;21.204;2023-01-29T07:31:21;100771.47;;;-0.29;100.00
22283;BME280;11310;51.528;21.204;2023-01-29T07:33:49;100786.13;;;-0.26;100.00
22283;BME280;11310;51.528;21.204;2023-01-29T07:36:18;100776.66;;;-0.24;100.00
22283;BME280;11310;51.528;21.204;2023-01-29T07:38:49;100784.44;;;-0.21;100.00
22283;BME280;11310;51.528;21.204;2023-01-29T07:41:18;100775.88;;;-0.19;100.00
22283;BME280;11310;51.528;21.204;2023-01-29T07:43:47;100762.97;;;-0.19;100.00
22283;BME280;11310;51.528;21.204;2023-01-29T07:46:16;100752.72;;;-0.16;100.00
22283;BME280;11310;51.528;21.204;2023-01-29T07:48:44;100754.44;;;-0.15;100.00
22283;BME280;11310;51.528;21.204;2023-01-29T07:51:13;100748.41;;;-0.14;100.00
22283;BME280;11310;51.528;21.204;2023-01-29T07:53:44;100740.72;;;-0.08;100.00
22283;BME280;11310;51.528;21.204;2023-01-29T07:56:14;100743.34;;;-0.03;100.00
22283;BME280;11310;51.528;21.204;2023-01-29T07:58:43;100754.53;;;0.00;100.00
22283;BME280;11310;51.528;21.204;2023-01-29T08:01:12;100752.84;;;0.03;100.00
22283;BME280;11310;51.528;21.204;2023-01-29T08:03:41;100752.84;;;0.03;100.00
22283;BME280;11310;51.528;21.204;2023-01-29T08:06:09;100744.25;;;0.03;100.00
22283;BME280;11310;51.528;21.204;2023-01-29T08:08:37;100744.28;;;0.05;100.00
22283;BME280;11310;51.528;21.204;2023-01-29T08:11:06;100745.09;;;0.04;100.00
22283;BME280;11310;51.528;21.204;2023-01-29T08:13:36;100757.16;;;0.06;100.00
22283;BME280;11310;51.528;21.204;2023-01-29T08:16:05;100743.41;;;0.09;100.00
22283;BME280;11310;51.528;21.204;2023-01-29T08:18:35;100741.75;;;0.13;100.00
22283;BME280;11310;51.528;21.204;2023-01-29T08:21:04;100741.78;;;0.20;100.00
22283;BME280;11310;51.528;21.204;2023-01-29T08:23:32;100750.44;;;0.27;100.00
22283;BME280;11310;51.528;21.204;2023-01-29T08:26:02;100748.75;;;0.32;100.00
22283;BME280;11310;51.528;21.204;2023-01-29T08:28:30;100754.81;;;0.37;100.00
22283;BME280;11310;51.528;21.204;2023-01-29T08:31:01;100747.91;;;0.38;100.00
22283;BME280;11310;51.528;21.204;2023-01-29T08:33:29;100747.91;;;0.38;100.00
22283;BME280;11310;51.528;21.204;2023-01-29T08:36:06;100745.34;;;0.36;100.00
22283;BME280;11310;51.528;21.204;2023-01-29T08:38:35;100739.31;;;0.37;100.00
22283;BME280;11310;51.528;21.204;2023-01-29T08:41:04;100744.50;;;0.41;100.00
22283;BME280;11310;51.528;21.204;2023-01-29T08:43:32;100751.41;;;0.45;100.00
22283;BME280;11310;51.528;21.204;2023-01-29T08:46:04;100749.72;;;0.49;100.00
22283;BME280;11310;51.528;21.204;2023-01-29T08:48:33;100747.19;;;0.55;100.00
22283;BME280;11310;51.528;21.204;2023-01-29T08:51:02;100723.94;;;0.55;100.00
22283;BME280;11310;51.528;21.204;2023-01-29T08:53:31;100729.13;;;0.58;100.00
22283;BME280;11310;51.528;21.204;2023-01-29T08:56:00;100730.03;;;0.64;100.00
22283;BME280;11310;51.528;21.204;2023-01-29T08:58:28;100728.31;;;0.68;100.00
22283;BME280;11310;51.528;21.204;2023-01-29T09:01:05;100716.25;;;0.70;100.00
22283;BME280;11310;51.528;21.204;2023-01-29T09:03:34;100717.13;;;0.73;100.00
22283;BME280;11310;51.528;21.204;2023-01-29T09:06:02;100714.59;;;0.79;100.00
22283;BME280;11310;51.528;21.204;2023-01-29T09:08:31;100717.19;;;0.84;100.00
22283;BME280;11310;51.528;21.204;2023-01-29T09:10:59;100718.94;;;0.91;100.00
22283;BME280;11310;51.528;21.204;2023-01-29T09:13:28;100721.53;;;0.94;99.11
22283;BME280;11310;51.528;21.204;2023-01-29T09:15:58;100717.22;;;0.93;99.09
22283;BME280;11310;51.528;21.204;2023-01-29T09:18:29;100719.84;;;0.99;99.76
22283;BME280;11310;51.528;21.204;2023-01-29T09:20:58;100714.69;;;0.99;97.64
22283;BME280;11310;51.528;21.204;2023-01-29T09:23:28;100711.22;;;0.98;98.41
22283;BME280;11310;51.528;21.204;2023-01-29T09:25:57;100704.34;;;1.02;98.85
22283;BME280;11310;51.528;21.204;2023-01-29T09:28:25;100705.22;;;1.07;98.71
22283;BME280;11310;51.528;21.204;2023-01-29T09:30:54;100694.88;;;1.08;97.27
22283;BME280;11310;51.528;21.204;2023-01-29T09:33:23;100688.00;;;1.12;96.71
22283;BME280;11310;51.528;21.204;2023-01-29T09:35:53;100686.31;;;1.20;97.65
22283;BME280;11310;51.528;21.204;2023-01-29T09:38:22;100683.75;;;1.30;97.65
22283;BME280;11310;51.528;21.204;2023-01-29T09:40:57;100686.31;;;1.35;96.89
22283;BME280;11310;51.528;21.204;2023-01-29T09:43:39;100688.91;;;1.44;95.71
22283;BME280;11310;51.528;21.204;2023-01-29T09:46:17;100689.81;;;1.47;96.75
22283;BME280;11310;51.528;21.204;2023-01-29T09:48:48;100684.63;;;1.46;96.82
22283;BME280;11310;51.528;21.204;2023-01-29T09:51:25;100673.41;;;1.44;96.90
22283;BME280;11310;51.528;21.204;2023-01-29T09:54:05;100671.69;;;1.43;96.85
22283;BME280;11310;51.528;21.204;2023-01-29T09:56:38;100653.59;;;1.43;96.28
22283;BME280;11310;51.528;21.204;2023-01-29T09:59:08;100651.91;;;1.45;97.76
22283;BME280;11310;51.528;21.204;2023-01-29T10:01:43;100654.47;;;1.51;97.63
22283;BME280;11310;51.528;21.204;2023-01-29T10:04:33;100643.28;;;1.46;95.86
22283;BME280;11310;51.528;21.204;2023-01-29T10:07:27;100640.69;;;1.38;96.19
22283;BME280;11310;51.528;21.204;2023-01-29T10:10:12;100640.66;;;1.34;96.52
22283;BME280;11310;51.528;21.204;2023-01-29T10:12:56;100644.13;;;1.40;98.37
22283;BME280;11310;51.528;21.204;2023-01-29T10:15:37;100632.91;;;1.43;97.34
22283;BME280;11310;51.528;21.204;2023-01-29T10:18:21;100636.38;;;1.42;93.65
22283;BME280;11310;51.528;21.204;2023-01-29T10:21:03;100630.34;;;1.38;96.54
22283;BME280;11310;51.528;21.204;2023-01-29T10:23:39;100634.63;;;1.44;97.30
22283;BME280;11310;51.528;21.204;2023-01-29T10:26:11;100632.06;;;1.50;96.97
22283;BME280;11310;51.528;21.204;2023-01-29T10:28:42;100632.06;;;1.50;95.37
22283;BME280;11310;51.528;21.204;2023-01-29T10:31:12;100631.22;;;1.52;95.38
22283;BME280;11310;51.528;21.204;2023-01-29T10:33:46;100629.50;;;1.59;96.50
22283;BME280;11310;51.528;21.204;2023-01-29T10:36:34;100625.19;;;1.65;96.88
22283;BME280;11310;51.528;21.204;2023-01-29T10:39:14;100619.13;;;1.72;95.53
22283;BME280;11310;51.528;21.204;2023-01-29T10:41:52;100608.78;;;1.77;95.78
22283;BME280;11310;51.528;21.204;2023-01-29T10:44:34;100613.94;;;1.80;97.05
22283;BME280;11310;51.528;21.204;2023-01-29T10:47:15;100601.88;;;1.76;95.53
22283;BME280;11310;51.528;21.204;2023-01-29T10:53:21;100588.94;;;1.82;95.14
22283;BME280;11310;51.528;21.204;2023-01-29T10:55:59;100589.81;;;1.87;96.07
22283;BME280;11310;51.528;21.204;2023-01-29T10:58:49;100577.72;;;1.90;97.13
22283;BME280;11310;51.528;21.204;2023-01-29T11:01:18;100575.97;;;1.94;97.16
22283;BME280;11310;51.528;21.204;2023-01-29T11:03:55;100555.31;;;1.91;96.98
22283;BME280;11310;51.528;21.204;2023-01-29T11:06:29;100559.63;;;1.84;97.43
22283;BME280;11310;51.528;21.204;2023-01-29T11:09:03;100557.03;;;1.83;97.30
22283;BME280;11310;51.528;21.204;2023-01-29T11:11:40;100562.25;;;1.74;96.23
22283;BME280;11310;51.528;21.204;2023-01-29T11:14:13;100565.69;;;1.68;98.52
22283;BME280;11310;51.528;21.204;2023-01-29T11:16:46;100556.22;;;1.66;98.18
22283;BME280;11310;51.528;21.204;2023-01-29T11:19:15;100555.38;;;1.61;98.57
22283;BME280;11310;51.528;21.204;2023-01-29T11:21:52;100556.22;;;1.57;99.06
22283;BME280;11310;51.528;21.204;2023-01-29T11:24:24;100554.53;;;1.50;98.33
22283;BME280;11310;51.528;21.204;2023-01-29T11:26:56;100558.84;;;1.42;99.58
22283;BME280;11310;51.528;21.204;2023-01-29T11:29:36;100555.41;;;1.37;99.23
22283;BME280;11310;51.528;21.204;2023-01-29T11:32:09;100562.31;;;1.33;99.55
22283;BME280;11310;51.528;21.204;2023-01-29T11:34:57;100551.94;;;1.29;97.45
22283;BME280;11310;51.528;21.204;2023-01-29T11:37:34;100546.78;;;1.29;99.00
22283;BME280;11310;51.528;21.204;2023-01-29T11:40:31;100543.34;;;1.30;99.42
22283;BME280;11310;51.528;21.204;2023-01-29T11:43:22;100545.06;;;1.29;98.91
22283;BME280;11310;51.528;21.204;2023-01-29T11:45:57;100529.56;;;1.29;99.43
22283;BME280;11310;51.528;21.204;2023-01-29T11:48:32;100524.38;;;1.32;99.80
22283;BME280;11310;51.528;21.204;2023-01-29T11:51:07;100521.81;;;1.34;99.87
22283;BME280;11310;51.528;21.204;2023-01-29T11:53:39;100515.78;;;1.38;100.00
22283;BME280;11310;51.528;21.204;2023-01-29T11:56:20;100514.91;;;1.43;99.58
22283;BME280;11310;51.528;21.204;2023-01-29T11:58:53;100502.00;;;1.45;99.87
22283;BME280;11310;51.528;21.204;2023-01-29T12:01:29;100502.84;;;1.50;99.91
22283;BME280;11310;51.528;21.204;2023-01-29T12:04:00;100490.78;;;1.47;99.26
22283;BME280;11310;51.528;21.204;2023-01-29T12:06:33;100495.06;;;1.44;99.82
22283;BME280;11310;51.528;21.204;2023-01-29T12:09:08;100495.94;;;1.43;100.00
22283;BME280;11310;51.528;21.204;2023-01-29T12:11:37;100485.63;;;1.37;99.83
22283;BME280;11310;51.528;21.204;2023-01-29T12:14:23;100476.16;;;1.33;100.00
22283;BME280;11310;51.528;21.204;2023-01-29T12:16:57;100472.69;;;1.34;100.00
22283;BME280;11310;51.528;21.204;2023-01-29T12:19:32;100475.28;;;1.37;100.00
22283;BME280;11310;51.528;21.204;2023-01-29T12:22:07;100471.81;;;1.47;100.00
22283;BME280;11310;51.528;21.204;2023-01-29T12:24:44;100464.03;;;1.53;100.00
22283;BME280;11310;51.528;21.204;2023-01-29T12:27:18;100459.72;;;1.52;99.82
22283;BME280;11310;51.528;21.204;2023-01-29T12:29:56;100453.72;;;1.47;99.48
22283;BME280;11310;51.528;21.204;2023-01-29T12:32:34;100458.91;;;1.41;99.98
22283;BME280;11310;51.528;21.204;2023-01-29T12:35:12;100454.63;;;1.34;100.00
22283;BME280;11310;51.528;21.204;2023-01-29T12:37:48;100453.75;;;1.35;100.00
22283;BME280;11310;51.528;21.204;2023-01-29T12:40:20;100445.13;;;1.40;100.00
22283;BME280;11310;51.528;21.204;2023-01-29T12:42:57;100433.91;;;1.47;100.00
22283;BME280;11310;51.528;21.204;2023-01-29T12:45:31;100438.22;;;1.50;99.83
22283;BME280;11310;51.528;21.204;2023-01-29T12:48:03;100427.88;;;1.50;100.00
22283;BME280;11310;51.528;21.204;2023-01-29T12:50:35;100424.41;;;1.54;100.00
22283;BME280;11310;51.528;21.204;2023-01-29T12:53:09;100420.13;;;1.51;100.00
22283;BME280;11310;51.528;21.204;2023-01-29T12:55:44;100414.94;;;1.50;100.00
22283;BME280;11310;51.528;21.204;2023-01-29T12:58:16;100421.84;;;1.51;100.00
22283;BME280;11310;51.528;21.204;2023-01-29T13:00:50;100410.63;;;1.49;100.00
22283;BME280;11310;51.528;21.204;2023-01-29T13:03:25;100414.94;;;1.44;100.00
22283;BME280;11310;51.528;21.204;2023-01-29T13:05:59;100416.69;;;1.37;100.00
22283;BME280;11310;51.528;21.204;2023-01-29T13:08:35;100421.88;;;1.33;100.00
22283;BME280;11310;51.528;21.204;2023-01-29T13:11:10;100423.63;;;1.31;100.00
22283;BME280;11310;51.528;21.204;2023-01-29T13:13:43;100421.88;;;1.30;100.00